Time;durP1;ratioP1;P1;durP2;ratioP2;P2;SDS_P1;SDS_P2;PMS_P1;PMS_P2;Temp;Humidity;BMP_temperature;BMP_pressure;BME280_temperature;BME280_humidity;BME280_pressure;Samples;Min_cycle;Max_cycle;Signal;HPM_P1;HPM_P2
2022/01/06 00:02:46;;;;;;;8.32;3.53;;;;;;;3.64;52.60;99020.41;7793894;32;37818;-78
2022/01/06 00:07:02;;;;;;;3.95;3.03;;;;;;;4.18;51.02;99010.97;7793819;32;37017;-77
2022/01/06 00:11:18;;;;;;;8.68;3.40;;;;;;;4.28;51.20;99024.59;7793761;32;39231;-78
2022/01/06 00:24:27;;;;;;;3.28;2.80;;;;;;;4.73;49.96;99015.44;7793682;32;37688;-78
2022/01/06 00:28:43;;;;;;;4.53;3.00;;;;;;;4.31;50.33;99040.25;7793614;32;39155;-78
2022/01/06 00:33:00;;;;;;;5.45;3.00;;;;;;;4.55;49.68;99045.44;7793511;32;39981;-78
2022/01/06 00:37:16;;;;;;;4.10;3.12;;;;;;;4.02;50.16;99050.38;7793389;32;37919;-77
2022/01/06 00:41:34;;;;;;;2.78;2.58;;;;;;;4.23;50.41;99048.81;7793434;32;36966;-77
2022/01/06 00:45:50;;;;;;;3.85;3.00;;;;;;;4.58;48.91;99050.34;7793451;32;38996;-78
2022/01/06 00:50:07;;;;;;;3.92;2.80;;;;;;;4.02;49.85;99047.66;7793034;32;39901;-77
2022/01/06 00:54:23;;;;;;;3.47;2.80;;;;;;;4.12;49.85;99043.25;7793225;32;38395;-77
2022/01/06 00:58:39;;;;;;;8.23;3.12;;;;;;;4.50;49.41;99020.03;7792962;32;36624;-78
2022/01/06 01:02:56;;;;;;;6.75;3.22;;;;;;;4.06;50.27;99011.88;7793014;32;39729;-77
2022/01/06 01:07:13;;;;;;;5.20;2.90;;;;;;;4.64;48.16;99006.12;7793157;32;39980;-78
2022/01/06 01:11:29;;;;;;;4.57;2.90;;;;;;;5.01;47.64;98986.56;7792949;32;37958;-77
2022/01/06 01:15:50;;;;;;;6.70;3.45;;;;;;;5.01;47.12;98986.56;7793124;32;37019;-77
2022/01/06 01:20:07;;;;;;;6.10;3.12;;;;;;;4.56;48.63;98976.91;7793032;32;39257;-78
2022/01/06 01:24:23;;;;;;;4.95;3.00;;;;;;;4.75;49.37;98958.47;7792863;32;40076;-78
2022/01/06 01:28:45;;;;;;;4.82;3.10;;;;;;;5.08;47.50;98968.25;7792802;32;37974;-78
2022/01/06 01:33:01;;;;;;;3.72;2.92;;;;;;;4.40;48.86;99014.50;7792874;32;38057;-77
2022/01/06 01:37:17;;;;;;;6.68;3.00;;;;;;;4.26;49.97;99034.78;7792781;32;39311;-78
2022/01/06 01:41:33;;;;;;;5.97;3.17;;;;;;;4.25;49.54;99035.88;7792641;32;39680;-78
2022/01/06 01:45:55;;;;;;;6.28;3.30;;;;;;;4.31;49.85;99034.88;7792565;32;37576;-78
2022/01/06 01:50:20;;;;;;;5.70;3.00;;;;;;;4.80;48.87;99031.44;7791317;32;37735;-78
2022/01/06 01:54:36;;;;;;;4.43;3.05;;;;;;;4.48;49.09;99019.47;7791475;32;39226;-78
2022/01/06 01:58:53;;;;;;;3.83;2.85;;;;;;;4.94;48.37;99016.47;7792380;32;39966;-78
2022/01/06 02:03:09;;;;;;;7.03;3.10;;;;;;;5.10;48.03;99019.34;7792321;32;37870;-77
2022/01/06 02:07:25;;;;;;;4.53;2.97;;;;;;;5.00;48.00;99009.22;7792413;32;36651;-77
2022/01/06 02:11:41;;;;;;;3.55;2.92;;;;;;;4.66;49.34;98993.22;7791264;32;40013;-77
2022/01/06 02:16:00;;;;;;;8.10;3.15;;;;;;;4.85;48.99;99005.31;7792144;32;40899;-77
2022/01/06 02:20:18;;;;;;;7.12;3.10;;;;;;;4.95;48.05;98987.56;7792098;32;37886;-77
2022/01/06 02:24:34;;;;;;;6.68;3.17;;;;;;;4.69;48.88;99003.50;7792119;32;37651;-77
2022/01/06 02:28:50;;;;;;;5.68;3.00;;;;;;;4.98;48.45;98995.16;7792121;32;39172;-77
2022/01/06 02:33:08;;;;;;;6.75;3.10;;;;;;;4.84;48.53;99011.75;7791939;32;39902;-76
2022/01/06 02:37:24;;;;;;;5.32;2.80;;;;;;;4.81;48.96;99027.66;7791899;32;38081;-78
2022/01/06 02:41:40;;;;;;;5.22;2.97;;;;;;;4.35;49.28;99025.22;7791865;32;36941;-77
2022/01/06 02:45:56;;;;;;;4.70;3.08;;;;;;;4.63;49.13;99020.72;7791786;32;39183;-77
2022/01/06 02:50:14;;;;;;;5.10;3.10;;;;;;;4.35;49.64;99024.38;7791464;32;40925;-77
2022/01/06 02:54:30;;;;;;;5.85;3.30;;;;;;;4.91;48.79;99011.56;7791548;32;37890;-77
2022/01/06 02:58:46;;;;;;;7.18;3.28;;;;;;;4.83;49.27;99015.56;7790242;32;36937;-77
2022/01/06 03:03:02;;;;;;;4.40;3.42;;;;;;;4.91;48.44;99014.28;7791381;32;39939;-77
2022/01/06 03:07:19;;;;;;;2.90;2.60;;;;;;;4.99;49.08;99008.44;7791237;32;40104;-76
2022/01/06 03:11:40;;;;;;;8.40;3.22;;;;;;;5.15;48.75;99022.09;7790793;32;37814;-77
2022/01/06 03:15:57;;;;;;;3.28;2.62;;;;;;;4.88;49.37;99049.88;7791123;32;37648;-78
2022/01/06 03:20:14;;;;;;;5.37;2.87;;;;;;;4.10;51.35;99061.56;7790883;32;38951;-77
2022/01/06 03:24:30;;;;;;;6.57;3.67;;;;;;;4.17;50.75;99069.47;7793092;32;40735;-77
2022/01/06 03:28:46;;;;;;;4.18;2.85;;;;;;;3.70;52.54;99077.91;7794213;32;39413;-77
2022/01/06 03:33:03;;;;;;;5.18;3.00;;;;;;;4.38;50.64;99067.91;7794232;32;37734;-76
2022/01/06 03:37:19;;;;;;;3.60;2.78;;;;;;;3.98;51.83;99071.63;7794170;32;39283;-77
2022/01/06 03:41:35;;;;;;;5.93;3.45;;;;;;;4.09;51.54;99059.94;7794060;32;40727;-77
2022/01/06 03:45:51;;;;;;;6.30;3.62;;;;;;;4.00;52.30;99074.91;7794011;32;37490;-77
2022/01/06 03:50:13;;;;;;;6.18;3.03;;;;;;;4.16;51.67;99059.78;7793867;32;36622;-77
2022/01/06 03:54:29;;;;;;;5.10;2.85;;;;;;;4.34;51.66;99069.47;7794083;32;39271;-78
2022/01/06 03:58:45;;;;;;;5.15;3.33;;;;;;;3.93;53.28;99076.94;7793874;32;40537;-77
2022/01/06 04:03:01;;;;;;;6.43;2.75;;;;;;;3.97;53.23;99056.53;7793745;32;38319;-78
2022/01/06 04:07:18;;;;;;;3.50;3.30;;;;;;;3.55;53.84;99059.59;7793758;32;37842;-78
2022/01/06 04:11:34;;;;;;;5.10;2.97;;;;;;;3.51;53.71;99080.03;7793771;32;39936;-76
2022/01/06 04:15:51;;;;;;;7.30;3.47;;;;;;;3.92;53.23;99083.41;7793738;32;40861;-77
2022/01/06 04:20:08;;;;;;;4.97;3.20;;;;;;;4.22;52.61;99091.12;7793542;32;38562;-76
2022/01/06 04:24:24;;;;;;;3.28;2.78;;;;;;;3.15;55.46;99109.00;7793654;32;37760;-77
2022/01/06 04:28:41;;;;;;;6.87;3.58;;;;;;;3.86;53.76;99089.78;7793657;32;39926;-77
2022/01/06 04:32:57;;;;;;;6.20;3.30;;;;;;;3.33;55.24;99097.22;7793440;32;40575;-78
2022/01/06 04:37:13;;;;;;;4.80;3.05;;;;;;;3.91;53.51;99095.25;7792779;32;37550;-78
2022/01/06 04:41:29;;;;;;;3.33;2.90;;;;;;;3.29;54.67;99094.16;7793353;32;37075;-78
2022/01/06 04:45:46;;;;;;;5.15;3.10;;;;;;;4.01;53.03;99095.41;7793578;32;39296;-77
2022/01/06 04:50:02;;;;;;;6.87;3.30;;;;;;;3.94;52.85;99097.47;7793087;32;40870;-76
2022/01/06 04:54:18;;;;;;;4.40;3.10;;;;;;;3.61;54.38;99107.16;7793226;32;38599;-76
2022/01/06 04:58:35;;;;;;;3.58;3.08;;;;;;;3.33;55.53;99124.97;7793226;32;37633;-77
2022/01/06 05:02:52;;;;;;;6.50;3.30;;;;;;;4.09;54.50;99113.88;7793100;32;39308;-76
2022/01/06 05:07:08;;;;;;;6.75;3.45;;;;;;;3.69;55.81;99122.94;7793069;32;40030;-77
2022/01/06 05:11:24;;;;;;;5.80;3.78;;;;;;;3.54;56.72;99142.34;7791802;32;37724;-78
2022/01/06 05:15:40;;;;;;;7.30;3.33;;;;;;;3.00;58.13;99150.75;7792980;32;36891;-77
2022/01/06 05:19:56;;;;;;;5.45;3.95;;;;;;;3.54;56.39;99149.63;7792894;32;40091;-78
2022/01/06 05:24:15;;;;;;;3.92;3.15;;;;;;;3.57;56.20;99154.53;7792817;32;39932;-77
2022/01/06 05:28:31;;;;;;;6.85;3.78;;;;;;;3.78;55.87;99157.56;7792915;32;36706;-78
2022/01/06 05:32:47;;;;;;;5.70;4.03;;;;;;;3.00;57.79;99157.97;7793319;32;37543;-77
2022/01/06 05:37:04;;;;;;;5.75;3.67;;;;;;;3.15;57.38;99169.06;7792809;32;39786;-77
2022/01/06 05:41:21;;;;;;;6.20;3.85;;;;;;;3.48;57.38;99166.75;7792679;32;39945;-77
2022/01/06 05:45:37;;;;;;;4.60;3.25;;;;;;;3.17;57.43;99188.53;7792564;32;37476;-78
2022/01/06 05:49:54;;;;;;;5.70;3.47;;;;;;;2.64;60.52;99184.16;7792526;32;37872;-78
2022/01/06 05:54:10;;;;;;;6.75;3.28;;;;;;;2.91;59.98;99183.63;7792300;32;40154;-78
2022/01/06 05:58:26;;;;;;;5.25;3.40;;;;;;;2.97;60.36;99194.28;7792451;32;40897;-77
2022/01/06 06:02:42;;;;;;;8.40;3.45;;;;;;;2.86;60.02;99192.41;7792194;32;37771;-77
2022/01/06 06:06:58;;;;;;;5.43;3.60;;;;;;;3.44;58.65;99195.25;7792336;32;36909;-78
2022/01/06 06:11:14;;;;;;;6.62;3.58;;;;;;;3.00;59.68;99203.75;7792304;32;39900;-77
2022/01/06 06:15:34;;;;;;;4.90;3.33;;;;;;;3.26;58.93;99202.44;7792207;32;40908;-83
2022/01/06 06:19:50;;;;;;;5.57;3.53;;;;;;;3.25;63.69;99214.25;7792230;32;38621;-80
2022/01/06 06:24:06;;;;;;;6.07;4.10;;;;;;;3.73;59.76;99213.06;7792256;32;37664;-77
2022/01/06 06:28:23;;;;;;;3.80;2.95;;;;;;;3.89;57.74;99224.94;7791945;32;40048;-76
2022/01/06 06:32:39;;;;;;;8.00;3.83;;;;;;;3.42;57.45;99235.09;7791965;32;40050;-76
2022/01/06 06:36:55;;;;;;;5.68;3.60;;;;;;;3.31;58.08;99242.97;7791872;32;37487;-78
2022/01/06 06:41:11;;;;;;;3.75;3.45;;;;;;;2.91;59.70;99249.06;7792042;32;37438;-77
2022/01/06 06:45:28;;;;;;;7.22;3.78;;;;;;;3.37;59.03;99239.28;7791874;32;39318;-78
2022/01/06 06:49:44;;;;;;;7.10;4.32;;;;;;;3.30;59.13;99245.87;7791664;32;39879;-78
2022/01/06 06:54:00;;;;;;;6.60;4.20;;;;;;;3.46;59.05;99242.44;7790331;32;37781;-76
2022/01/06 06:58:16;;;;;;;5.85;4.55;;;;;;;4.02;57.00;99253.50;7790799;32;36968;-78
2022/01/06 07:02:32;;;;;;;8.98;4.40;;;;;;;3.21;60.10;99269.69;7791337;32;39144;-78
2022/01/06 07:06:49;;;;;;;7.57;4.12;;;;;;;3.27;59.69;99262.53;7790035;32;39979;-77
2022/01/06 07:11:05;;;;;;;7.53;4.15;;;;;;;3.25;60.22;99249.28;7791258;32;37755;-77
2022/01/06 07:15:21;;;;;;;5.25;3.90;;;;;;;3.79;58.49;99258.97;7791143;32;36675;-78
2022/01/06 07:19:38;;;;;;;9.80;4.57;;;;;;;3.49;59.08;99276.19;7790949;32;40084;-78
2022/01/06 07:23:54;;;;;;;8.07;4.78;;;;;;;3.22;59.98;99290.16;7790880;32;39990;-77
2022/01/06 07:28:10;;;;;;;9.02;4.05;;;;;;;3.31;60.07;99304.09;7789680;32;37900;-78
2022/01/06 07:32:26;;;;;;;5.57;4.10;;;;;;;2.72;61.86;99309.47;7790705;32;36965;-76
2022/01/06 07:36:45;;;;;;;7.50;4.45;;;;;;;3.38;59.67;99296.69;7790781;32;39369;-78
2022/01/06 07:41:01;;;;;;;8.57;4.35;;;;;;;3.19;60.48;99293.31;7790232;32;40052;-77
2022/01/06 07:45:18;;;;;;;6.05;4.55;;;;;;;3.28;59.73;99299.19;7790275;32;37890;-77
2022/01/06 07:49:34;;;;;;;10.35;5.05;;;;;;;3.96;57.57;99297.59;7790246;32;37105;-77
2022/01/06 07:53:51;;;;;;;10.23;5.40;;;;;;;4.22;56.73;99311.59;7789754;32;39956;-77
2022/01/06 07:58:08;;;;;;;12.70;5.55;;;;;;;4.58;55.47;99312.22;7789908;32;40797;-77
2022/01/06 08:02:24;;;;;;;6.18;4.18;;;;;;;4.45;55.62;99310.62;7789649;32;37720;-76
2022/01/06 08:06:40;;;;;;;8.85;4.93;;;;;;;4.71;55.19;99303.81;7789765;32;36946;-78
2022/01/06 08:10:56;;;;;;;9.13;5.28;;;;;;;4.73;55.31;99306.28;7791724;32;39278;-77
2022/01/06 08:15:14;;;;;;;9.63;5.20;;;;;;;4.77;55.85;99310.91;7793627;32;40030;-77
2022/01/06 08:19:30;;;;;;;11.25;5.18;;;;;;;4.52;55.29;99322.13;7793561;32;38529;-77
2022/01/06 08:23:46;;;;;;;9.80;4.95;;;;;;;4.22;56.29;99335.88;7793647;32;37791;-76
2022/01/06 08:28:05;;;;;;;9.60;5.62;;;;;;;4.42;56.05;99338.94;7793562;32;39161;-76
2022/01/06 08:32:21;;;;;;;10.95;4.82;;;;;;;4.36;56.72;99344.50;7793276;32;40807;-77
2022/01/06 08:36:37;;;;;;;5.37;4.65;;;;;;;4.10;57.00;99358.31;7793230;32;37500;-75
2022/01/06 08:40:53;;;;;;;9.43;4.25;;;;;;;3.99;57.77;99361.88;7791997;32;36631;-77
2022/01/06 08:45:10;;;;;;;10.10;3.90;;;;;;;4.06;57.66;99362.56;7793277;32;39711;-76
2022/01/06 08:49:26;;;;;;;5.72;3.92;;;;;;;5.06;54.81;99360.28;7793179;32;40693;-77
2022/01/06 08:53:43;;;;;;;6.28;4.32;;;;;;;4.25;57.64;99373.16;7792827;32;37815;-75
2022/01/06 08:57:59;;;;;;;11.77;5.00;;;;;;;4.82;55.25;99372.31;7792997;32;37065;-75
2022/01/06 09:02:15;;;;;;;8.98;4.75;;;;;;;5.00;55.50;99366.69;7792918;32;39158;-76
2022/01/06 09:06:31;;;;;;;9.23;4.15;;;;;;;5.12;55.25;99366.56;7792875;32;41102;-75
2022/01/06 09:10:47;;;;;;;10.63;4.35;;;;;;;5.46;54.53;99361.94;7792905;32;38336;-75
2022/01/06 09:15:16;;;;;;;9.05;3.90;;;;;;;5.78;54.42;99372.12;7792870;32;37869;-75
2022/01/06 09:19:32;;;;;;;7.50;3.60;;;;;;;6.00;53.26;99364.06;7792781;32;39203;-75
2022/01/06 09:23:50;;;;;;;5.97;4.10;;;;;;;6.24;52.91;99366.47;7792344;32;39896;-75
2022/01/06 09:28:06;;;;;;;11.07;4.50;;;;;;;6.72;52.36;99370.22;7792727;32;38648;-76
2022/01/06 09:32:22;;;;;;;10.50;4.03;;;;;;;6.51;51.46;99371.13;7792618;32;37709;-77
2022/01/06 09:36:40;;;;;;;7.93;3.97;;;;;;;6.35;52.47;99365.53;7792611;32;40120;-77
2022/01/06 09:40:56;;;;;;;8.88;3.87;;;;;;;6.00;53.27;99366.78;7792451;32;40999;-76
2022/01/06 09:45:13;;;;;;;8.07;4.18;;;;;;;5.96;53.06;99372.94;7792511;32;37814;-76
2022/01/06 09:49:29;;;;;;;8.93;3.85;;;;;;;5.71;53.56;99378.78;7792349;32;38268;-77
2022/01/06 09:53:45;;;;;;;10.48;3.62;;;;;;;5.96;53.93;99384.56;7792291;32;39729;-76
2022/01/06 09:58:02;;;;;;;10.85;4.00;;;;;;;6.35;52.11;99381.78;7792301;32;39955;-77
2022/01/06 10:02:19;;;;;;;7.37;3.83;;;;;;;6.32;52.26;99382.28;7792169;32;38034;-77
2022/01/06 10:06:35;;;;;;;9.10;3.80;;;;;;;6.32;52.17;99392.31;7792269;32;36683;-75
2022/01/06 10:11:07;;;;;;;9.80;4.15;;;;;;;6.19;52.51;99399.75;7792263;32;38814;-76
2022/01/06 10:15:25;;;;;;;8.93;3.37;;;;;;;5.83;53.99;99399.25;7791151;32;40142;-76
2022/01/06 10:19:43;;;;;;;4.82;3.30;;;;;;;5.83;52.74;99399.25;7790835;32;38951;-76
2022/01/06 10:24:28;;;;;;;10.45;4.10;;;;;;;5.63;53.04;99420.59;7791960;32;37034;-76
2022/01/06 10:28:50;;;;;;;8.70;3.87;;;;;;;5.40;53.98;99418.91;7788311;32;40052;-76
2022/01/06 10:33:06;;;;;;;8.32;3.60;;;;;;;5.88;52.80;99406.63;7790930;32;40969;-76
2022/01/06 10:37:26;;;;;;;5.57;3.53;;;;;;;6.28;51.69;99407.41;7791753;32;38602;-77
2022/01/06 10:41:42;;;;;;;9.30;3.92;;;;;;;5.84;52.82;99429.81;7791718;32;36922;-77
2022/01/06 10:46:02;;;;;;;6.78;3.62;;;;;;;6.24;52.79;99411.69;7790504;32;39148;-76
2022/01/06 10:50:24;;;;;;;7.72;3.80;;;;;;;6.48;51.45;99418.47;7783364;32;259413;-75
2022/01/06 10:54:40;;;;;;;7.90;3.20;;;;;;;6.82;51.24;99422.91;7791377;32;37854;-76
2022/01/06 10:58:58;;;;;;;6.87;3.55;;;;;;;6.88;51.42;99421.84;7791438;32;37187;-76
2022/01/06 11:03:22;;;;;;;6.80;3.65;;;;;;;6.46;52.36;99419.81;7791228;32;39269;-77
2022/01/06 11:07:38;;;;;;;9.60;3.83;;;;;;;6.82;51.71;99422.91;7791207;32;40041;-76
2022/01/06 11:16:16;;;;;;;7.70;4.07;;;;;;;6.73;51.32;99414.41;7791082;32;37119;-76
2022/01/06 11:20:33;;;;;;;6.87;3.55;;;;;;;6.44;52.56;99405.72;7791086;32;38232;-77
2022/01/06 11:24:59;;;;;;;9.02;4.50;;;;;;;7.00;50.95;99408.16;7789561;32;40608;-77
2022/01/06 11:29:29;;;;;;;6.22;3.65;;;;;;;6.68;51.91;99417.88;7790828;32;37536;-77
2022/01/06 11:33:47;;;;;;;5.90;3.25;;;;;;;6.46;52.79;99425.22;7790626;32;36900;-77
2022/01/06 11:38:03;;;;;;;6.03;3.45;;;;;;;6.06;52.84;99420.97;7789297;32;38962;-76
2022/01/06 11:42:22;;;;;;;5.05;3.70;;;;;;;6.25;52.79;99424.97;7790118;32;39787;-76
2022/01/06 11:46:46;;;;;;;4.85;3.40;;;;;;;6.49;52.31;99432.84;7793450;32;38647;-76
2022/01/06 11:51:03;;;;;;;5.75;3.42;;;;;;;6.64;51.37;99422.19;7793829;32;37826;-77
2022/01/06 11:55:20;;;;;;;5.50;3.10;;;;;;;6.83;51.26;99419.09;7793693;32;39305;-77
2022/01/06 11:59:37;;;;;;;7.93;3.53;;;;;;;6.76;51.34;99424.72;7793934;32;40092;-76
2022/01/06 12:03:55;;;;;;;5.22;3.50;;;;;;;6.26;52.20;99434.75;7792358;32;38609;-76
2022/01/06 12:08:11;;;;;;;5.70;3.85;;;;;;;6.44;51.77;99439.00;7793563;32;37751;-77
2022/01/06 12:12:40;;;;;;;7.87;3.62;;;;;;;6.39;51.49;99442.47;7793679;32;39776;-77
2022/01/06 12:17:07;;;;;;;5.43;3.92;;;;;;;6.87;50.14;99437.31;7793505;32;40300;-76
2022/01/06 12:21:23;;;;;;;5.15;3.22;;;;;;;7.24;49.61;99441.97;7793396;32;37881;-77
2022/01/06 12:25:40;;;;;;;7.87;3.62;;;;;;;7.01;49.34;99442.31;7793486;32;37697;-77
2022/01/06 12:29:56;;;;;;;6.90;3.37;;;;;;;7.46;48.38;99443.78;7793410;32;39164;-78
2022/01/06 12:34:14;;;;;;;6.47;3.40;;;;;;;7.70;48.65;99449.66;7793239;32;39856;-76
2022/01/06 12:38:36;;;;;;;4.22;2.90;;;;;;;8.03;47.45;99439.53;7793204;32;37827;-77
2022/01/06 12:42:53;;;;;;;5.93;3.33;;;;;;;7.29;47.77;99447.44;7793154;32;37058;-77
2022/01/06 12:47:09;;;;;;;4.05;2.78;;;;;;;7.68;46.70;99446.38;7792070;32;39367;-77
2022/01/06 12:51:27;;;;;;;3.80;2.70;;;;;;;7.47;47.54;99462.50;7793087;32;40863;-78
2022/01/06 12:55:44;;;;;;;9.15;3.20;;;;;;;7.50;47.38;99466.59;7791236;32;37780;-77
2022/01/06 13:00:09;;;;;;;6.75;2.62;;;;;;;7.14;46.27;99469.81;7792905;32;36964;-78
2022/01/06 13:04:27;;;;;;;4.18;2.92;;;;;;;7.15;46.33;99476.88;7792866;32;39148;-77
2022/01/06 13:08:50;;;;;;;4.72;2.67;;;;;;;7.22;46.15;99471.22;7792830;32;39110;-77
2022/01/06 13:13:06;;;;;;;7.53;3.45;;;;;;;7.14;46.09;99480.66;7792715;32;37895;-78
2022/01/06 13:17:29;;;;;;;6.25;2.85;;;;;;;7.07;46.23;99493.62;7792781;32;37792;-77
2022/01/06 13:21:56;;;;;;;8.03;2.97;;;;;;;6.93;45.88;99495.06;7792635;32;39777;-76
2022/01/06 13:26:12;;;;;;;8.77;2.62;;;;;;;7.62;44.78;99491.66;7787466;32;39896;-76
2022/01/06 13:30:33;;;;;;;3.08;2.60;;;;;;;7.26;45.32;99504.06;7782798;32;37855;-76
2022/01/06 13:35:04;;;;;;;3.90;2.03;;;;;;;7.62;44.82;99501.69;7791668;32;37508;-77
2022/01/06 13:39:20;;;;;;;7.82;2.85;;;;;;;7.63;44.17;99501.41;7792074;32;39286;-76
2022/01/06 13:43:39;;;;;;;5.95;3.22;;;;;;;7.40;44.56;99515.31;7791971;32;40018;-77
2022/01/06 13:48:04;;;;;;;4.07;2.50;;;;;;;7.15;45.10;99519.44;7791823;32;37524;-76
2022/01/06 13:52:27;;;;;;;5.70;2.75;;;;;;;7.07;44.91;99528.84;7792018;32;37081;-78
2022/01/06 13:56:44;;;;;;;4.03;2.73;;;;;;;7.17;45.10;99538.16;7790595;32;40165;-76
2022/01/06 14:01:03;;;;;;;4.70;2.70;;;;;;;7.64;44.36;99527.50;7791470;32;39836;-76
2022/01/06 14:05:20;;;;;;;8.15;2.60;;;;;;;7.32;44.70;99541.84;7792060;32;37735;-75
2022/01/06 14:09:36;;;;;;;4.37;2.47;;;;;;;7.98;43.10;99538.03;7789833;32;36882;-76
2022/01/06 14:13:52;;;;;;;5.28;2.40;;;;;;;9.32;40.51;99535.94;7791706;32;39902;-77
2022/01/06 14:18:08;;;;;;;3.33;2.45;;;;;;;10.50;36.95;99533.16;7790346;32;39850;-76
2022/01/06 14:22:26;;;;;;;5.32;2.42;;;;;;;9.14;39.64;99537.25;7791394;32;38637;-77
2022/01/06 14:26:42;;;;;;;4.90;2.72;;;;;;;7.68;43.38;99547.59;7791468;32;37835;-76
2022/01/06 14:31:04;;;;;;;4.32;2.55;;;;;;;8.21;42.83;99555.84;7791170;32;39959;-77
2022/01/06 14:35:20;;;;;;;3.53;2.40;;;;;;;7.51;45.70;99557.75;7791634;32;39968;-77
2022/01/06 14:39:36;;;;;;;3.80;2.47;;;;;;;7.02;46.80;99574.03;7790826;32;37930;-77
2022/01/06 14:43:53;;;;;;;4.90;2.80;;;;;;;6.61;48.53;99574.37;7790049;32;35576;-77
2022/01/06 14:48:09;;;;;;;3.90;2.42;;;;;;;6.24;49.91;99591.16;7790929;32;39968;-76
2022/01/06 14:52:25;;;;;;;4.12;2.70;;;;;;;6.30;50.13;99595.59;7790753;32;41198;-77
2022/01/06 14:56:41;;;;;;;5.00;3.28;;;;;;;6.52;49.23;99600.22;7790558;32;38581;-77
2022/01/06 15:00:57;;;;;;;3.87;3.22;;;;;;;6.86;48.19;99609.09;7790119;32;37674;-76
2022/01/06 15:05:14;;;;;;;4.22;2.72;;;;;;;6.66;48.11;99617.78;7790352;32;39779;-76
2022/01/06 15:09:30;;;;;;;4.80;2.90;;;;;;;6.34;49.60;99631.12;7790573;32;40779;-76
2022/01/06 15:13:46;;;;;;;5.00;2.97;;;;;;;6.30;50.00;99633.50;7789655;32;37763;-76
2022/01/06 15:18:03;;;;;;;3.95;2.80;;;;;;;6.43;49.28;99645.88;7790213;32;37687;-76
2022/01/06 15:22:19;;;;;;;6.22;3.10;;;;;;;6.03;49.50;99646.06;7793591;32;39365;-76
2022/01/06 15:26:35;;;;;;;3.78;2.72;;;;;;;5.52;50.45;99652.19;7793740;32;40700;-76
2022/01/06 15:30:52;;;;;;;3.55;2.70;;;;;;;6.14;48.27;99655.97;7793448;32;38532;-76
2022/01/06 15:35:09;;;;;;;4.35;2.80;;;;;;;5.83;48.41;99671.69;7793466;32;36669;-75
2022/01/06 15:39:25;;;;;;;3.08;2.45;;;;;;;5.08;49.90;99679.69;7793693;32;39043;-75
2022/01/06 15:43:41;;;;;;;4.68;2.40;;;;;;;5.71;48.58;99681.72;7793380;32;41307;-76
2022/01/06 15:48:17;;;;;;;5.10;2.80;;;;;;;5.45;48.49;99697.47;7792812;32;39018;-76
2022/01/06 15:52:33;;;;;;;5.65;3.40;;;;;;;5.02;49.72;99706.88;7792570;32;38264;-76
2022/01/06 15:56:50;;;;;;;5.10;2.90;;;;;;;5.53;48.49;99710.59;7794050;32;40688;-75
2022/01/06 16:05:55;;;;;;;3.95;2.80;;;;;;;5.36;48.91;99731.34;7793685;32;38909;-76
2022/01/06 16:10:12;;;;;;;3.42;2.72;;;;;;;5.36;47.91;99742.16;7793726;32;37587;-75
2022/01/06 16:14:28;;;;;;;3.53;2.70;;;;;;;5.16;48.25;99748.78;7793152;32;39170;-75
2022/01/06 16:18:44;;;;;;;3.90;2.78;;;;;;;4.95;47.95;99746.69;7793503;32;39881;-76
2022/01/06 16:23:01;;;;;;;5.45;2.92;;;;;;;4.47;48.86;99760.16;7792229;32;38595;-76
2022/01/06 16:27:17;;;;;;;4.45;2.80;;;;;;;4.64;47.51;99772.97;7793662;32;36792;-76
2022/01/06 16:31:51;;;;;;;3.05;2.62;;;;;;;4.50;47.57;99783.16;7792778;32;39697;-77
2022/01/06 16:36:09;;;;;;;3.28;2.80;;;;;;;3.94;47.93;99796.03;7792358;32;39891;-75
2022/01/06 16:40:25;;;;;;;4.00;2.65;;;;;;;4.27;45.92;99795.53;7793403;32;38498;-75
2022/01/06 16:44:41;;;;;;;3.30;3.00;;;;;;;4.04;44.71;99812.50;7793390;32;37461;-75
2022/01/06 16:48:58;;;;;;;4.43;3.20;;;;;;;4.10;44.34;99819.66;7793399;32;39849;-75
2022/01/06 16:53:15;;;;;;;5.22;3.08;;;;;;;3.88;43.80;99840.06;7793088;32;39842;-75
2022/01/06 16:57:32;;;;;;;4.85;2.90;;;;;;;3.97;42.76;99852.22;7793171;32;38575;-75
2022/01/06 17:01:48;;;;;;;4.72;2.90;;;;;;;4.21;41.50;99865.81;7793121;32;36900;-75
2022/01/06 17:06:05;;;;;;;7.32;3.85;;;;;;;4.26;41.27;99876.75;7793055;32;39211;-75
2022/01/06 17:10:23;;;;;;;6.60;3.85;;;;;;;4.07;41.23;99887.59;7792943;32;39879;-75
2022/01/06 17:14:39;;;;;;;7.50;3.50;;;;;;;4.21;41.08;99882.00;7792813;32;38425;-75
2022/01/06 17:18:57;;;;;;;6.90;3.53;;;;;;;4.03;41.30;99897.16;7792883;32;36913;-75
2022/01/06 17:23:13;;;;;;;5.60;3.67;;;;;;;4.04;40.48;99893.44;7792808;32;39214;-75
2022/01/06 17:27:29;;;;;;;4.28;3.33;;;;;;;4.02;39.74;99900.94;7792765;32;40719;-75
2022/01/06 17:31:45;;;;;;;6.55;3.55;;;;;;;3.73;39.65;99914.09;7792678;32;37614;-76
2022/01/06 17:36:02;;;;;;;3.83;3.05;;;;;;;3.70;39.57;99914.53;7792728;32;36929;-76
2022/01/06 17:40:19;;;;;;;3.67;3.08;;;;;;;3.68;39.64;99932.81;7792663;32;40009;-74
2022/01/06 17:44:35;;;;;;;6.60;3.25;;;;;;;3.52;39.06;99949.59;7792338;32;40610;-75
2022/01/06 17:48:52;;;;;;;3.58;3.15;;;;;;;3.62;38.44;99952.56;7792519;32;37871;-74
2022/01/06 17:53:08;;;;;;;6.72;3.30;;;;;;;3.68;37.34;99954.41;7792263;32;37675;-75
2022/01/06 17:57:24;;;;;;;6.43;3.00;;;;;;;3.76;36.22;99973.00;7792461;32;40172;-75
2022/01/06 18:01:41;;;;;;;5.65;3.10;;;;;;;3.23;37.01;99986.09;7792331;32;40779;-75
2022/01/06 18:06:02;;;;;;;6.12;3.20;;;;;;;3.43;37.00;99980.53;7769486;32;37574;-74
2022/01/06 18:14:53;;;;;;;4.47;3.37;;;;;;;3.34;37.05;99991.59;7764605;32;39586;-73
2022/01/06 18:19:10;;;;;;;9.02;3.83;;;;;;;3.30;37.36;100003.88;7764605;32;40689;-75
2022/01/06 18:23:26;;;;;;;5.03;3.42;;;;;;;3.27;37.53;100003.47;7764218;32;37505;-74
2022/01/06 18:27:43;;;;;;;6.40;3.70;;;;;;;3.55;37.14;100005.72;7764264;32;37257;-74
2022/01/06 18:31:59;;;;;;;4.93;3.50;;;;;;;3.48;37.49;100013.06;7764261;32;40555;-74
2022/01/06 18:36:19;;;;;;;4.57;3.42;;;;;;;3.21;37.89;100029.44;7764269;32;40693;-75
2022/01/06 18:40:35;;;;;;;8.43;3.58;;;;;;;2.77;38.65;100033.81;7764519;32;38666;-75
2022/01/06 18:44:51;;;;;;;4.85;3.40;;;;;;;3.11;38.64;100029.09;7763873;32;36920;-74
2022/01/06 18:49:07;;;;;;;7.95;4.18;;;;;;;3.09;39.10;100020.41;7763951;32;39220;-72
2022/01/06 18:53:23;;;;;;;6.97;3.95;;;;;;;3.09;38.91;100033.87;7767744;32;41089;-74
2022/01/06 18:57:39;;;;;;;9.90;5.50;;;;;;;3.13;39.40;100041.28;7790755;32;38775;-74
2022/01/06 19:01:55;;;;;;;6.75;4.10;;;;;;;2.94;41.36;100051.13;7790875;32;38256;-74
2022/01/06 19:06:11;;;;;;;8.27;4.28;;;;;;;3.12;40.16;100054.97;7783386;32;39104;-75
2022/01/06 19:10:28;;;;;;;7.75;4.22;;;;;;;2.61;40.71;100062.88;7790970;32;40637;-77
2022/01/06 19:14:44;;;;;;;8.18;4.60;;;;;;;2.89;40.33;100068.97;7790012;32;37848;-74
2022/01/06 19:19:01;;;;;;;11.60;4.90;;;;;;;2.23;41.94;100066.28;7790463;32;37044;-74
2022/01/06 19:23:18;;;;;;;38.90;21.55;;;;;;;2.79;41.31;100074.81;7789072;32;39355;-74
2022/01/06 19:27:34;;;;;;;22.92;12.02;;;;;;;2.77;40.54;100082.28;7790097;32;40174;-75
2022/01/06 19:31:50;;;;;;;11.55;6.30;;;;;;;2.93;40.78;100089.88;7790236;32;38602;-75
2022/01/06 19:36:07;;;;;;;15.35;5.87;;;;;;;2.93;41.68;100100.66;7789032;32;37980;-75
2022/01/06 19:40:26;;;;;;;11.73;5.45;;;;;;;2.77;41.82;100117.28;7790480;32;39748;-75
2022/01/06 19:44:42;;;;;;;7.32;5.05;;;;;;;2.70;41.74;100103.03;7790233;32;40062;-75
2022/01/06 19:49:13;;;;;;;11.38;4.07;;;;;;;2.58;42.10;100100.97;7781522;32;38605;-76
2022/01/06 19:53:29;;;;;;;5.62;4.00;;;;;;;2.72;41.97;100111.72;7789742;32;37613;-75
2022/01/06 19:57:47;;;;;;;5.80;3.87;;;;;;;2.31;42.87;100118.22;7789506;32;39850;-75
2022/01/06 20:02:03;;;;;;;9.23;4.03;;;;;;;2.33;43.94;100132.28;7789312;32;39952;-75
2022/01/06 20:06:20;;;;;;;7.90;4.22;;;;;;;2.47;44.54;100138.47;7783636;32;37972;-76
2022/01/06 20:10:37;;;;;;;5.35;3.60;;;;;;;2.52;42.74;100133.28;7792597;32;36906;-76
2022/01/06 20:14:57;;;;;;;6.30;3.40;;;;;;;2.19;42.62;100140.41;7793551;32;38107;-75
2022/01/06 20:19:13;;;;;;;5.50;3.45;;;;;;;1.92;43.87;100141.44;7792643;32;39911;-75
2022/01/06 20:23:30;;;;;;;6.75;3.53;;;;;;;1.95;44.31;100149.06;7793201;32;37892;-75
2022/01/06 20:27:47;;;;;;;7.55;4.62;;;;;;;2.04;44.49;100162.13;7793048;32;37708;-75
2022/01/06 20:32:07;;;;;;;11.20;5.30;;;;;;;2.10;43.68;100179.28;7792918;32;39233;-75
2022/01/06 20:36:24;;;;;;;48.40;15.80;;;;;;;2.17;43.94;100184.66;7791597;32;40773;-75
2022/01/06 20:40:40;;;;;;;14.25;6.43;;;;;;;2.45;43.50;100176.37;7792295;32;37810;-76
2022/01/06 20:44:56;;;;;;;8.95;4.93;;;;;;;2.28;43.15;100183.22;7792905;32;35660;-76